Time;durP1;ratioP1;P1;durP2;ratioP2;P2;SDS_P1;SDS_P2;PMS_P1;PMS_P2;Temp;Humidity;BMP_temperature;BMP_pressure;BME280_temperature;BME280_humidity;BME280_pressure;Samples;Min_cycle;Max_cycle;Signal;HPM_P1;HPM_P2
2021/11/22 00:01:12;;;;;;;27.25;21.02;;;22.50;36.30;;;;;;5044606;28;20180;-61
2021/11/22 00:03:39;;;;;;;26.52;19.23;;;22.60;36.40;;;;;;5053752;28;20050;-61
2021/11/22 00:06:06;;;;;;;24.83;19.48;;;22.50;36.90;;;;;;5064163;28;20055;-62
2021/11/22 00:08:34;;;;;;;27.92;20.00;;;22.50;36.30;;;;;;5062987;28;20055;-61
2021/11/22 00:11:02;;;;;;;26.13;20.08;;;22.50;36.40;;;;;;5059226;28;20060;-61
2021/11/22 00:13:30;;;;;;;25.25;19.45;;;22.50;36.30;;;;;;5054773;28;20083;-61
2021/11/22 00:15:57;;;;;;;23.80;18.83;;;22.50;36.30;;;;;;5063076;28;20191;-61
2021/11/22 00:18:24;;;;;;;27.25;19.40;;;22.50;36.30;;;;;;5044383;28;20052;-61
2021/11/22 00:20:52;;;;;;;24.88;19.63;;;22.50;36.40;;;;;;5041786;28;20060;-62
2021/11/22 00:23:19;;;;;;;26.63;19.50;;;22.50;36.30;;;;;;5060165;28;20055;-61
2021/11/22 00:25:46;;;;;;;25.73;19.20;;;22.50;36.40;;;;;;5064468;28;20101;-62
2021/11/22 00:28:14;;;;;;;26.98;19.95;;;22.60;36.40;;;;;;5063882;28;20060;-61
2021/11/22 00:30:42;;;;;;;24.67;19.02;;;22.50;36.30;;;;;;5063804;28;20044;-62
2021/11/22 00:33:10;;;;;;;27.25;20.50;;;22.50;36.30;;;;;;5043137;28;20094;-61
2021/11/22 00:35:38;;;;;;;24.67;19.17;;;22.60;36.40;;;;;;5042573;28;20053;-61
2021/11/22 00:38:07;;;;;;;23.67;19.20;;;22.60;36.40;;;;;;5043923;28;20464;-61
2021/11/22 00:40:36;;;;;;;28.77;20.08;;;22.60;36.40;;;;;;5044243;28;20056;-61
2021/11/22 00:43:05;;;;;;;27.60;19.77;;;22.60;36.40;;;;;;5041530;28;20053;-62
2021/11/22 00:45:33;;;;;;;26.13;19.65;;;22.60;36.40;;;;;;5042988;28;20082;-61
2021/11/22 00:48:01;;;;;;;25.92;20.08;;;22.60;36.30;;;;;;5044199;28;20049;-62
2021/11/22 00:50:30;;;;;;;26.92;19.88;;;22.60;36.30;;;;;;5043755;28;20056;-61
2021/11/22 00:52:57;;;;;;;26.58;19.50;;;22.60;36.40;;;;;;5047901;28;20064;-61
2021/11/22 00:55:25;;;;;;;25.55;19.55;;;22.60;36.30;;;;;;5042484;28;20101;-61
2021/11/22 00:57:52;;;;;;;24.52;18.70;;;22.50;36.30;;;;;;5043704;28;20099;-61
2021/11/22 01:00:20;;;;;;;26.75;19.00;;;22.50;36.30;;;;;;5044017;28;20114;-62
2021/11/22 01:02:48;;;;;;;24.92;18.88;;;22.50;36.30;;;;;;5041150;28;20052;-61
2021/11/22 01:05:16;;;;;;;23.50;18.10;;;22.50;36.30;;;;;;5048238;28;20559;-61
2021/11/22 01:07:43;;;;;;;24.33;19.05;;;22.50;36.40;;;;;;5040022;28;20045;-61
2021/11/22 01:10:12;;;;;;;25.63;19.35;;;22.50;36.40;;;;;;5044738;28;20053;-60
2021/11/22 01:12:39;;;;;;;23.58;17.73;;;22.50;36.40;;;;;;5035831;28;20088;-61
2021/11/22 01:15:11;;;;;;;27.48;19.15;;;22.50;36.40;;;;;;5044193;28;20084;-61
2021/11/22 01:17:40;;;;;;;27.77;18.63;;;22.50;36.30;;;;;;5044419;28;21245;-61
2021/11/22 01:20:10;;;;;;;24.73;18.17;;;22.50;36.30;;;;;;5044588;28;20076;-61
2021/11/22 01:22:38;;;;;;;;;;;22.50;36.30;;;;;;5040687;28;20052;-60
2021/11/22 01:25:08;;;;;;;22.05;17.02;;;22.50;36.40;;;;;;5043726;28;19927;-61
2021/11/22 01:27:46;;;;;;;25.60;18.40;;;22.50;36.40;;;;;;5043574;28;20912;-61
2021/11/22 01:30:14;;;;;;;22.35;17.35;;;22.50;36.40;;;;;;5043300;28;20103;-61
2021/11/22 01:32:43;;;;;;;23.65;18.00;;;22.50;36.40;;;;;;5040497;28;20060;-61
2021/11/22 01:35:11;;;;;;;24.20;18.00;;;22.50;36.30;;;;;;5046102;28;20115;-61
2021/11/22 01:37:39;;;;;;;22.90;16.80;;;22.50;36.40;;;;;;5047481;28;20052;-61
2021/11/22 01:40:07;;;;;;;24.95;18.50;;;22.50;36.40;;;;;;5046824;28;20514;-61
2021/11/22 01:42:37;;;;;;;23.63;18.13;;;22.50;36.40;;;;;;5044816;28;20079;-61
2021/11/22 01:45:07;;;;;;;23.05;17.40;;;22.50;36.40;;;;;;5045894;28;20110;-61
2021/11/22 01:47:34;;;;;;;25.85;17.65;;;22.50;36.40;;;;;;5045749;28;20048;-61
2021/11/22 01:50:03;;;;;;;23.30;16.70;;;22.50;36.40;;;;;;5046651;28;20581;-62
2021/11/22 01:52:31;;;;;;;21.58;16.88;;;22.50;36.40;;;;;;5050927;28;20098;-61
2021/11/22 01:54:58;;;;;;;24.95;17.95;;;22.50;36.40;;;;;;5046700;28;20077;-61
2021/11/22 01:57:25;;;;;;;23.10;16.17;;;22.50;36.40;;;;;;5046902;28;20082;-61
2021/11/22 01:59:52;;;;;;;22.80;17.88;;;22.50;36.40;;;;;;5047404;28;20509;-61
2021/11/22 02:02:21;;;;;;;22.85;16.52;;;22.50;36.30;;;;;;5043236;28;20080;-61
2021/11/22 02:04:48;;;;;;;22.02;16.88;;;22.50;36.40;;;;;;5046814;28;20076;-61
2021/11/22 02:07:15;;;;;;;21.13;16.17;;;22.50;36.40;;;;;;5046533;28;20049;-61
2021/11/22 02:09:42;;;;;;;22.38;16.52;;;22.50;36.40;;;;;;5046566;28;20141;-61
2021/11/22 02:12:10;;;;;;;21.48;16.00;;;22.50;36.30;;;;;;5049128;28;20062;-61
2021/11/22 02:14:37;;;;;;;18.27;14.95;;;22.50;36.30;;;;;;5028325;28;20139;-61
2021/11/22 02:17:06;;;;;;;18.98;14.50;;;22.50;36.40;;;;;;5046435;28;20131;-61
2021/11/22 02:19:36;;;;;;;;;;;22.50;36.30;;;;;;5046518;28;20044;-61
2021/11/22 02:22:06;;;;;;;19.17;14.95;;;22.50;36.30;;;;;;5038522;28;20376;-61
2021/11/22 02:24:33;;;;;;;21.42;15.38;;;22.60;36.40;;;;;;5026072;28;20126;-61
2021/11/22 02:27:00;;;;;;;19.25;15.38;;;22.50;36.30;;;;;;5026800;28;20456;-61
2021/11/22 02:29:28;;;;;;;19.60;15.35;;;22.50;36.40;;;;;;5025883;28;20517;-61
2021/11/22 02:31:56;;;;;;;17.83;14.25;;;22.60;36.40;;;;;;5036387;28;20743;-60
2021/11/22 02:34:23;;;;;;;20.20;14.90;;;22.50;36.30;;;;;;5048992;28;20583;-60
2021/11/22 02:36:50;;;;;;;18.52;13.85;;;22.50;36.90;;;;;;5046418;28;20048;-60
2021/11/22 02:39:17;;;;;;;18.52;14.65;;;22.50;36.30;;;;;;5045816;28;20091;-60
2021/11/22 02:41:45;;;;;;;19.30;14.50;;;22.50;36.30;;;;;;5042358;28;20047;-60
2021/11/22 02:44:12;;;;;;;16.73;14.02;;;22.50;36.30;;;;;;5062987;28;20103;-61
2021/11/22 02:46:39;;;;;;;20.65;15.25;;;22.50;36.30;;;;;;5066530;28;20048;-60
2021/11/22 02:49:06;;;;;;;18.20;13.95;;;22.50;36.30;;;;;;5064482;28;20468;-60
2021/11/22 02:51:34;;;;;;;18.25;14.23;;;22.50;36.90;;;;;;5052733;28;20102;-60
2021/11/22 02:54:03;;;;;;;17.73;14.35;;;22.50;36.40;;;;;;5043247;28;20133;-60
2021/11/22 02:56:34;;;;;;;17.55;13.48;;;22.50;36.40;;;;;;5045674;28;20498;-60
2021/11/22 02:59:03;;;;;;;16.83;13.10;;;22.50;36.40;;;;;;5045847;28;20088;-60
2021/11/22 03:01:31;;;;;;;19.55;14.57;;;22.50;36.40;;;;;;5040452;28;20513;-60
2021/11/22 03:03:58;;;;;;;16.35;12.80;;;22.50;36.40;;;;;;5042575;28;20052;-60
2021/11/22 03:06:26;;;;;;;16.67;12.73;;;22.50;36.40;;;;;;5045312;28;20745;-60
2021/11/22 03:08:53;;;;;;;16.13;12.85;;;22.50;36.40;;;;;;5045736;28;20452;-60
2021/11/22 03:11:21;;;;;;;16.88;12.88;;;22.50;36.30;;;;;;5040320;28;20102;-60
2021/11/22 03:13:49;;;;;;;16.48;12.48;;;22.50;36.30;;;;;;5040416;28;20490;-60
2021/11/22 03:16:17;;;;;;;18.55;12.98;;;22.50;36.30;;;;;;5044814;28;20679;-61
2021/11/22 03:18:45;;;;;;;15.43;12.25;;;22.50;36.40;;;;;;5045465;28;20059;-60
2021/11/22 03:21:13;;;;;;;14.32;12.10;;;22.50;36.40;;;;;;5040452;28;20561;-60
2021/11/22 03:23:42;;;;;;;15.30;12.93;;;22.50;36.30;;;;;;5057610;28;20417;-60
2021/11/22 03:26:09;;;;;;;16.58;12.73;;;22.50;36.30;;;;;;5065157;28;20047;-60
2021/11/22 03:28:37;;;;;;;15.45;12.57;;;22.40;36.30;;;;;;5065555;28;20052;-60
2021/11/22 03:31:05;;;;;;;15.05;12.00;;;22.50;36.90;;;;;;5057453;28;20052;-60
2021/11/22 03:33:32;;;;;;;15.10;11.73;;;22.50;36.30;;;;;;5053107;28;20056;-60
2021/11/22 03:36:00;;;;;;;16.13;12.35;;;22.50;36.30;;;;;;5064905;28;20099;-60
2021/11/22 03:38:30;;;;;;;15.60;12.02;;;22.50;36.30;;;;;;5064824;28;20420;-61
2021/11/22 03:40:58;;;;;;;;;;;22.50;36.30;;;;;;5059352;28;20092;-61
2021/11/22 03:43:30;;;;;;;15.52;12.55;;;22.40;36.30;;;;;;5057306;28;20016;-60
2021/11/22 03:45:57;;;;;;;14.63;11.43;;;22.50;36.40;;;;;;5064601;28;20279;-60
2021/11/22 03:48:25;;;;;;;14.82;11.60;;;22.40;36.30;;;;;;5065471;28;20043;-60
2021/11/22 03:50:52;;;;;;;14.00;10.95;;;22.40;36.30;;;;;;5060498;28;20052;-60
2021/11/22 03:53:19;;;;;;;13.88;11.18;;;22.40;36.30;;;;;;5057435;28;20135;-60
2021/11/22 03:55:47;;;;;;;14.73;11.65;;;22.40;36.30;;;;;;5063972;28;20044;-60
2021/11/22 03:58:14;;;;;;;14.52;10.95;;;22.40;36.40;;;;;;5065620;28;20439;-60
2021/11/22 04:00:46;;;;;;;14.63;10.82;;;22.40;36.40;;;;;;5062963;28;20186;-60
2021/11/22 04:03:13;;;;;;;14.15;11.05;;;22.40;36.40;;;;;;5036336;28;20626;-60
2021/11/22 04:05:40;;;;;;;14.95;11.23;;;22.50;36.40;;;;;;5044601;28;20125;-60
2021/11/22 04:08:08;;;;;;;14.02;10.80;;;22.40;36.40;;;;;;5044784;28;20056;-60
2021/11/22 04:10:37;;;;;;;14.00;10.82;;;22.50;36.40;;;;;;5044352;28;20083;-60
2021/11/22 04:13:06;;;;;;;13.32;10.55;;;22.50;36.40;;;;;;5052553;28;20060;-60
2021/11/22 04:15:34;;;;;;;11.13;9.82;;;22.50;36.40;;;;;;5064575;28;20497;-60
2021/11/22 04:18:02;;;;;;;14.35;10.95;;;22.50;36.40;;;;;;5044747;28;20593;-60
2021/11/22 04:20:29;;;;;;;11.85;9.85;;;22.50;36.40;;;;;;5026422;28;20064;-60
2021/11/22 04:22:57;;;;;;;14.30;10.80;;;22.50;36.40;;;;;;5048162;28;20509;-60
2021/11/22 04:25:24;;;;;;;12.98;10.63;;;22.50;36.40;;;;;;5064009;28;20083;-60
2021/11/22 04:27:52;;;;;;;12.05;10.00;;;22.50;36.40;;;;;;5064570;28;20424;-60
2021/11/22 04:30:19;;;;;;;11.70;9.50;;;22.50;36.40;;;;;;5063246;28;20048;-60
2021/11/22 04:32:46;;;;;;;13.73;10.18;;;22.50;36.30;;;;;;5046019;28;20500;-61
2021/11/22 04:35:15;;;;;;;12.05;9.48;;;22.50;36.30;;;;;;5043858;28;20474;-61
2021/11/22 04:37:42;;;;;;;11.98;9.95;;;22.50;36.30;;;;;;5044347;28;20110;-61
2021/11/22 04:40:13;;;;;;;11.23;9.07;;;22.50;36.30;;;;;;5044332;28;20072;-61
2021/11/22 04:42:45;;;;;;;13.75;10.10;;;22.50;36.30;;;;;;5046335;28;20412;-61
2021/11/22 04:45:13;;;;;;;10.35;9.13;;;22.50;36.30;;;;;;5063937;28;20102;-61
2021/11/22 04:47:40;;;;;;;10.63;8.80;;;22.50;36.30;;;;;;5064377;28;20245;-61
2021/11/22 04:50:08;;;;;;;9.80;8.77;;;22.50;36.40;;;;;;5064211;28;20052;-61
2021/11/22 04:52:36;;;;;;;12.52;10.32;;;22.50;36.40;;;;;;5041596;28;20102;-62
2021/11/22 04:55:04;;;;;;;11.77;9.35;;;22.40;36.30;;;;;;5044418;28;20094;-61
2021/11/22 04:57:31;;;;;;;9.80;8.75;;;22.40;36.30;;;;;;5043666;28;20102;-62
2021/11/22 04:59:59;;;;;;;11.82;9.18;;;22.50;36.40;;;;;;5044025;28;20078;-61
2021/11/22 05:02:26;;;;;;;9.43;8.05;;;22.40;36.30;;;;;;5047140;28;20060;-61
2021/11/22 05:04:53;;;;;;;9.80;8.02;;;22.50;36.40;;;;;;5042389;28;20494;-61
2021/11/22 05:07:20;;;;;;;10.18;8.48;;;22.50;36.30;;;;;;5042580;28;20056;-61
2021/11/22 05:09:48;;;;;;;11.43;8.48;;;22.40;36.30;;;;;;5046519;28;20045;-61
2021/11/22 05:12:16;;;;;;;10.07;8.35;;;22.50;36.40;;;;;;5041245;28;20052;-61
2021/11/22 05:14:44;;;;;;;9.40;8.20;;;22.40;36.30;;;;;;5067615;28;20147;-61
2021/11/22 05:17:12;;;;;;;10.50;8.52;;;22.40;36.30;;;;;;5054795;28;21031;-61
2021/11/22 05:19:39;;;;;;;10.35;8.30;;;22.40;36.30;;;;;;5043026;28;20088;-61
2021/11/22 05:22:06;;;;;;;9.85;7.97;;;22.40;36.30;;;;;;5030832;28;20052;-61
2021/11/22 05:24:34;;;;;;;9.68;7.97;;;22.40;36.30;;;;;;5034981;28;20052;-61
2021/11/22 05:27:03;;;;;;;10.30;8.20;;;22.40;36.30;;;;;;5035685;28;20132;-61
2021/11/22 05:29:32;;;;;;;;;;;22.40;36.30;;;;;;5032319;28;20111;-61
2021/11/22 05:31:59;;;;;;;11.18;7.97;;;22.40;36.90;;;;;;5039954;28;19955;-61
2021/11/22 05:34:26;;;;;;;10.48;8.10;;;22.40;36.30;;;;;;5040095;28;20146;-61
2021/11/22 05:36:53;;;;;;;9.73;7.93;;;22.40;36.40;;;;;;5037173;28;20131;-61
2021/11/22 05:39:20;;;;;;;9.13;7.82;;;22.40;36.40;;;;;;5037675;28;20845;-61
2021/11/22 05:41:48;;;;;;;9.10;8.00;;;22.40;36.40;;;;;;5038568;28;20048;-61
2021/11/22 05:44:15;;;;;;;9.30;7.60;;;22.40;36.40;;;;;;5036622;28;20045;-61
2021/11/22 05:46:42;;;;;;;9.02;7.45;;;22.40;36.40;;;;;;5037490;28;20052;-61
2021/11/22 05:49:09;;;;;;;10.25;7.70;;;22.40;36.40;;;;;;5035189;28;20037;-61
2021/11/22 05:51:38;;;;;;;8.98;6.90;;;22.40;36.30;;;;;;5034434;28;20080;-61
2021/11/22 05:54:06;;;;;;;8.82;7.68;;;22.40;36.40;;;;;;5032432;28;20088;-61
2021/11/22 05:56:33;;;;;;;8.27;6.97;;;22.40;36.40;;;;;;5032322;28;20926;-61
2021/11/22 05:59:00;;;;;;;8.27;6.53;;;22.40;36.30;;;;;;5034848;28;20049;-61
2021/11/22 06:01:27;;;;;;;7.63;6.80;;;22.40;36.40;;;;;;5032468;28;20083;-61
2021/11/22 06:03:54;;;;;;;9.13;6.72;;;22.40;36.40;;;;;;5056510;28;20146;-61
2021/11/22 06:06:21;;;;;;;8.65;7.35;;;22.40;36.30;;;;;;5031706;28;20149;-61
2021/11/22 06:08:49;;;;;;;8.75;7.03;;;22.40;36.10;;;;;;5033605;28;20106;-61
2021/11/22 06:11:16;;;;;;;7.53;6.70;;;22.50;36.10;;;;;;5041763;28;20048;-61
2021/11/22 06:13:43;;;;;;;8.90;6.97;;;22.50;36.50;;;;;;5040947;28;21017;-61
2021/11/22 06:16:10;;;;;;;7.32;6.50;;;22.50;36.00;;;;;;5040684;28;20053;-61
2021/11/22 06:18:38;;;;;;;7.80;6.75;;;22.50;36.00;;;;;;5035031;28;20450;-61
2021/11/22 06:21:05;;;;;;;7.90;6.20;;;22.50;35.90;;;;;;5022496;28;20044;-61
2021/11/22 06:23:32;;;;;;;8.43;7.25;;;22.50;36.00;;;;;;5036513;28;20146;-61
2021/11/22 06:26:00;;;;;;;7.65;6.80;;;22.50;35.90;;;;;;5030353;28;20049;-61
2021/11/22 06:28:27;;;;;;;7.57;6.80;;;22.60;36.00;;;;;;5026548;28;20059;-61
2021/11/22 06:30:54;;;;;;;8.10;6.72;;;22.60;35.90;;;;;;5021900;28;20048;-61
2021/11/22 06:33:21;;;;;;;7.78;6.43;;;22.60;35.90;;;;;;5020663;28;20795;-63
2021/11/22 06:35:48;;;;;;;6.75;6.10;;;22.70;35.90;;;;;;5020181;28;20110;-62
2021/11/22 06:38:16;;;;;;;7.28;6.00;;;22.70;35.90;;;;;;5025529;28;20048;-61
2021/11/22 06:40:44;;;;;;;8.07;6.07;;;22.80;35.80;;;;;;5024364;28;20059;-61
2021/11/22 06:43:12;;;;;;;7.28;5.55;;;22.80;35.70;;;;;;5015548;28;20040;-61
2021/11/22 06:45:39;;;;;;;8.18;5.65;;;22.80;35.80;;;;;;5027692;28;20052;-62
2021/11/22 06:48:07;;;;;;;6.65;5.80;;;22.90;36.10;;;;;;5020288;28;20135;-63
2021/11/22 06:50:35;;;;;;;9.35;5.47;;;22.90;36.00;;;;;;5022165;28;20506;-63
2021/11/22 06:53:03;;;;;;;6.05;5.10;;;22.90;36.10;;;;;;5014711;28;20060;-62
2021/11/22 06:55:30;;;;;;;9.68;6.53;;;23.00;36.40;;;;;;5027276;28;21452;-62
2021/11/22 06:57:58;;;;;;;8.68;5.10;;;23.10;36.40;;;;;;5023958;28;20968;-64
2021/11/22 07:00:25;;;;;;;7.05;5.70;;;23.10;36.20;;;;;;5027239;28;20506;-62
2021/11/22 07:02:52;;;;;;;12.02;6.95;;;23.20;36.40;;;;;;5016598;28;20134;-62
2021/11/22 07:05:22;;;;;;;7.30;6.35;;;23.30;36.40;;;;;;5023712;28;20052;-62
2021/11/22 07:07:49;;;;;;;5.13;4.63;;;23.30;36.50;;;;;;5024732;28;20049;-63
2021/11/22 07:10:20;;;;;;;6.35;5.15;;;23.40;36.40;;;;;;5023547;28;20083;-63
2021/11/22 07:12:49;;;;;;;7.18;5.03;;;23.50;36.30;;;;;;5014133;28;20681;-63
2021/11/22 07:15:20;;;;;;;7.53;5.18;;;23.50;36.10;;;;;;5022643;28;20080;-62
2021/11/22 07:17:50;;;;;;;6.53;5.22;;;23.60;36.00;;;;;;5023425;28;20051;-63
2021/11/22 07:20:18;;;;;;;7.03;5.00;;;23.70;35.90;;;;;;5019731;28;20533;-65
2021/11/22 07:22:46;;;;;;;7.65;5.03;;;23.80;35.90;;;;;;5013360;28;20056;-61
2021/11/22 07:25:13;;;;;;;8.70;4.32;;;23.80;35.90;;;;;;5024434;28;20084;-63
2021/11/22 07:27:41;;;;;;;8.55;5.50;;;23.90;35.70;;;;;;5022765;28;20094;-61
2021/11/22 07:30:09;;;;;;;7.95;4.57;;;24.00;35.70;;;;;;5023830;28;20109;-61
2021/11/22 07:32:36;;;;;;;5.07;4.25;;;24.10;35.70;;;;;;5018747;28;20080;-63
2021/11/22 07:35:04;;;;;;;6.82;4.57;;;24.20;35.60;;;;;;5017949;28;20102;-62
2021/11/22 07:37:32;;;;;;;7.63;4.88;;;24.30;35.50;;;;;;5024372;28;20524;-61
2021/11/22 07:40:00;;;;;;;6.63;4.78;;;24.40;35.40;;;;;;5021619;28;20072;-62
2021/11/22 07:42:29;;;;;;;5.68;5.00;;;24.50;35.30;;;;;;5008497;28;20076;-65
2021/11/22 07:44:57;;;;;;;8.25;4.78;;;24.50;35.20;;;;;;5023392;28;20440;-65
2021/11/22 07:47:24;;;;;;;8.55;5.10;;;24.60;34.90;;;;;;5029649;28;20128;-65
2021/11/22 07:49:51;;;;;;;16.20;4.85;;;24.70;34.90;;;;;;5027160;28;20053;-64
2021/11/22 07:52:19;;;;;;;4.97;4.28;;;24.80;34.80;;;;;;5017319;28;20048;-65
2021/11/22 07:54:47;;;;;;;5.55;4.53;;;24.80;34.60;;;;;;5026651;28;20055;-65
2021/11/22 07:57:14;;;;;;;5.63;4.55;;;24.80;34.50;;;;;;5028699;28;20076;-65
2021/11/22 07:59:41;;;;;;;6.15;4.50;;;24.80;34.60;;;;;;5024870;28;20056;-65
2021/11/22 08:02:09;;;;;;;6.00;4.43;;;24.90;34.70;;;;;;5018311;28;20091;-66
2021/11/22 08:04:36;;;;;;;5.45;4.22;;;24.90;34.70;;;;;;5023567;28;20052;-65
2021/11/22 08:07:11;;;;;;;9.70;4.75;;;24.80;34.80;;;;;;5030037;28;20044;-66
2021/11/22 08:09:44;;;;;;;6.45;4.30;;;24.90;34.70;;;;;;5029895;28;20052;-65
2021/11/22 08:12:26;;;;;;;5.50;3.85;;;24.80;34.60;;;;;;5021260;28;20782;-65
2021/11/22 08:14:55;;;;;;;4.78;4.25;;;24.90;34.70;;;;;;5029845;28;20306;-64
2021/11/22 08:17:23;;;;;;;4.00;3.60;;;24.80;34.80;;;;;;5027596;28;20060;-64
2021/11/22 08:19:51;;;;;;;4.15;3.60;;;24.90;34.80;;;;;;5027059;28;20056;-65
2021/11/22 08:22:21;;;;;;;4.97;3.90;;;24.90;34.70;;;;;;5016941;28;20059;-66
2021/11/22 08:24:52;;;;;;;5.10;4.25;;;24.90;34.80;;;;;;5020255;28;20064;-64
2021/11/22 08:27:21;;;;;;;7.60;4.07;;;24.90;34.90;;;;;;5018979;28;20060;-65
2021/11/22 08:29:49;;;;;;;5.30;3.72;;;24.90;34.80;;;;;;5030575;28;20073;-65
2021/11/22 08:32:18;;;;;;;5.57;4.05;;;24.90;34.80;;;;;;5047777;28;20105;-65
2021/11/22 08:34:45;;;;;;;5.47;3.88;;;24.90;34.60;;;;;;5071214;28;20417;-67
2021/11/22 08:37:12;;;;;;;5.85;4.40;;;24.80;34.50;;;;;;5072966;28;20049;-65
2021/11/22 08:39:40;;;;;;;5.63;3.90;;;24.90;34.60;;;;;;5054492;28;20819;-67
2021/11/22 08:42:07;;;;;;;5.38;4.05;;;24.80;34.50;;;;;;5020268;28;20733;-65
2021/11/22 08:44:35;;;;;;;5.40;4.45;;;24.80;34.60;;;;;;5025909;28;20137;-67
2021/11/22 08:47:03;;;;;;;6.57;4.72;;;24.80;34.70;;;;;;5027874;28;20098;-68
2021/11/22 08:49:32;;;;;;;4.73;4.33;;;24.80;34.60;;;;;;5034071;28;20060;-65
2021/11/22 08:52:00;;;;;;;5.18;4.50;;;24.70;34.60;;;;;;5023735;28;20099;-66
2021/11/22 08:54:27;;;;;;;5.75;4.53;;;24.80;34.70;;;;;;5030038;28;20048;-67
2021/11/22 08:56:54;;;;;;;4.95;3.92;;;24.80;34.70;;;;;;5030444;28;20052;-65
2021/11/22 08:59:21;;;;;;;5.10;4.60;;;24.80;34.80;;;;;;5034091;28;20147;-67
2021/11/22 09:01:49;;;;;;;6.20;4.28;;;24.80;34.80;;;;;;5024619;28;20044;-66
2021/11/22 09:04:16;;;;;;;5.55;4.30;;;24.70;34.90;;;;;;5035051;28;20075;-66
2021/11/22 09:06:43;;;;;;;5.07;4.57;;;24.70;34.80;;;;;;5027571;28;20045;-65
2021/11/22 09:09:12;;;;;;;4.82;4.32;;;24.80;34.80;;;;;;5022874;28;20075;-64
2021/11/22 09:11:40;;;;;;;4.93;4.43;;;24.80;34.80;;;;;;5023891;28;20102;-66
2021/11/22 09:14:07;;;;;;;5.80;4.80;;;24.80;35.10;;;;;;5025598;28;20565;-65
2021/11/22 09:16:34;;;;;;;5.20;4.65;;;24.80;35.20;;;;;;5028816;28;20052;-66
2021/11/22 09:19:03;;;;;;;6.00;4.50;;;24.80;35.20;;;;;;5029626;28;20561;-66
2021/11/22 09:21:31;;;;;;;7.32;4.85;;;24.80;35.30;;;;;;5031336;28;20143;-66
2021/11/22 09:24:00;;;;;;;5.72;5.10;;;24.90;35.40;;;;;;5030199;28;20048;-64
2021/11/22 09:26:28;;;;;;;5.75;4.72;;;24.90;35.30;;;;;;5030336;28;20057;-65
2021/11/22 09:28:56;;;;;;;5.22;4.53;;;24.90;35.30;;;;;;5031277;28;20148;-69
2021/11/22 09:31:24;;;;;;;5.13;4.57;;;25.00;35.40;;;;;;5023360;28;20129;-65
2021/11/22 09:33:53;;;;;;;6.95;4.93;;;25.00;35.40;;;;;;5020038;28;20844;-66
2021/11/22 09:36:22;;;;;;;6.95;5.32;;;25.00;35.30;;;;;;5019927;28;20045;-65
2021/11/22 09:38:50;;;;;;;5.68;5.10;;;25.00;35.20;;;;;;5026211;28;20173;-65
2021/11/22 09:41:18;;;;;;;6.75;5.25;;;25.00;35.20;;;;;;5021920;28;20514;-66
2021/11/22 09:43:47;;;;;;;5.65;4.97;;;25.10;35.10;;;;;;5026101;28;20092;-66
2021/11/22 09:46:15;;;;;;;4.75;4.35;;;25.10;35.00;;;;;;5029913;28;21021;-65
2021/11/22 09:48:43;;;;;;;5.32;4.82;;;25.10;35.00;;;;;;5027369;28;20060;-66
2021/11/22 09:51:10;;;;;;;7.25;5.07;;;25.10;35.00;;;;;;5024724;28;20406;-68
2021/11/22 09:53:40;;;;;;;5.30;4.80;;;25.10;35.00;;;;;;5019982;28;20545;-67
2021/11/22 09:56:11;;;;;;;8.05;5.22;;;25.20;35.10;;;;;;5026242;28;20141;-66
2021/11/22 09:58:39;;;;;;;6.15;4.72;;;25.20;35.10;;;;;;5029258;28;20045;-64
2021/11/22 10:01:12;;;;;;;6.13;4.90;;;25.30;35.30;;;;;;5023360;28;20057;-69
2021/11/22 10:03:40;;;;;;;8.63;4.45;;;25.30;35.40;;;;;;5021632;28;20052;-68
2021/11/22 10:06:08;;;;;;;6.82;4.43;;;25.30;35.40;;;;;;5029790;28;20048;-67
2021/11/22 10:08:41;;;;;;;5.78;4.78;;;25.30;35.40;;;;;;5034234;28;20437;-66
2021/11/22 10:11:09;;;;;;;4.78;4.28;;;25.30;35.40;;;;;;5021607;28;20102;-65
2021/11/22 10:13:39;;;;;;;5.63;4.50;;;25.40;35.50;;;;;;5026158;28;20055;-67
2021/11/22 10:16:22;;;;;;;5.00;4.40;;;25.40;35.40;;;;;;5029934;28;20099;-70
2021/11/22 10:18:59;;;;;;;8.45;5.15;;;25.40;35.40;;;;;;5027308;28;20053;-66
2021/11/22 10:21:35;;;;;;;5.18;4.40;;;25.40;35.30;;;;;;5025993;28;20504;-67
2021/11/22 10:24:07;;;;;;;5.78;5.13;;;25.40;35.40;;;;;;5023273;28;20075;-67
2021/11/22 10:26:47;;;;;;;6.53;4.68;;;25.40;35.30;;;;;;5025196;28;20082;-68
2021/11/22 10:29:25;;;;;;;5.18;4.68;;;25.40;35.10;;;;;;5028870;28;20056;-68
2021/11/22 10:31:56;;;;;;;5.95;4.53;;;25.50;35.00;;;;;;5022996;28;20250;-65
2021/11/22 10:34:24;;;;;;;4.97;4.57;;;25.50;35.40;;;;;;5036720;28;20055;-67
2021/11/22 10:37:01;;;;;;;5.20;4.68;;;25.50;34.70;;;;;;5028238;28;20072;-67
2021/11/22 10:39:30;;;;;;;6.25;5.13;;;25.50;34.50;;;;;;5027062;28;20117;-67
2021/11/22 10:42:03;;;;;;;5.35;4.47;;;25.50;34.50;;;;;;5021662;28;20068;-66
2021/11/22 10:44:32;;;;;;;4.88;4.43;;;25.50;34.40;;;;;;5026627;28;20053;-69
2021/11/22 10:47:13;;;;;;;7.32;4.68;;;25.50;34.30;;;;;;5024907;28;20102;-66
2021/11/22 10:49:47;;;;;;;6.38;5.78;;;25.50;34.30;;;;;;5031010;28;20052;-67
2021/11/22 10:52:26;;;;;;;11.25;7.78;;;25.50;33.50;;;;;;5018577;28;20053;-64
2021/11/22 10:54:56;;;;;;;10.02;6.03;;;25.50;32.60;;;;;;5025781;28;20049;-67
2021/11/22 10:57:31;;;;;;;5.80;5.20;;;25.50;33.30;;;;;;5020075;28;20121;-68
2021/11/22 10:59:59;;;;;;;6.20;5.32;;;25.50;33.60;;;;;;5021558;28;20474;-67
2021/11/22 11:02:40;;;;;;;5.63;5.13;;;25.50;33.60;;;;;;5018000;28;20153;-69
2021/11/22 11:05:08;;;;;;;6.82;5.43;;;25.50;33.60;;;;;;5027652;28;20104;-69
2021/11/22 11:07:37;;;;;;;6.00;5.40;;;25.60;33.50;;;;;;5030124;28;20111;-69
2021/11/22 11:10:05;;;;;;;5.30;4.80;;;25.60;33.60;;;;;;5030268;28;20655;-69
2021/11/22 11:12:43;;;;;;;7.68;5.40;;;25.60;33.50;;;;;;5023091;28;20352;-69
2021/11/22 11:15:10;;;;;;;6.95;5.03;;;25.60;33.40;;;;;;5029397;28;20057;-70
2021/11/22 11:17:38;;;;;;;5.10;4.70;;;25.60;33.40;;;;;;5031242;28;20395;-70
2021/11/22 11:20:08;;;;;;;6.03;5.13;;;25.70;33.40;;;;;;5026367;28;20049;-67
2021/11/22 11:22:36;;;;;;;8.00;4.95;;;25.70;33.60;;;;;;5020871;28;20102;-68
2021/11/22 11:25:04;;;;;;;4.68;4.15;;;25.70;33.60;;;;;;5020821;28;20115;-68
2021/11/22 11:27:40;;;;;;;4.85;4.32;;;25.80;33.60;;;;;;5027094;28;20151;-67
2021/11/22 11:30:08;;;;;;;7.05;5.25;;;25.80;33.70;;;;;;5028218;28;20048;-66
2021/11/22 11:32:36;;;;;;;6.32;4.70;;;25.80;33.60;;;;;;5017964;28;20051;-68
2021/11/22 11:35:07;;;;;;;5.32;4.80;;;25.80;33.60;;;;;;5028265;28;20049;-68
2021/11/22 11:37:56;;;;;;;5.60;5.00;;;25.80;33.40;;;;;;5028370;28;20080;-68
2021/11/22 11:41:02;;;;;;;5.95;4.70;;;25.80;33.30;;;;;;5029452;28;20781;-67
2021/11/22 11:44:01;;;;;;;4.35;3.63;;;25.80;33.40;;;;;;5023099;28;20482;-66
2021/11/22 11:47:09;;;;;;;5.57;4.45;;;25.90;33.80;;;;;;5029791;28;20044;-64
2021/11/22 11:49:37;;;;;;;7.18;5.03;;;25.90;33.70;;;;;;5024753;28;20052;-64
2021/11/22 11:52:26;;;;;;;4.40;3.97;;;25.90;33.90;;;;;;5019266;28;20058;-65
2021/11/22 11:54:55;;;;;;;5.00;4.47;;;25.90;33.90;;;;;;5020996;28;20064;-66
2021/11/22 11:57:26;;;;;;;5.60;4.32;;;25.90;33.80;;;;;;5026499;28;20371;-64
2021/11/22 11:59:54;;;;;;;6.45;4.88;;;25.90;33.70;;;;;;5022746;28;20146;-66
2021/11/22 12:02:27;;;;;;;5.75;4.32;;;25.90;33.70;;;;;;5014815;28;20106;-67
2021/11/22 12:05:09;;;;;;;9.45;5.15;;;25.90;34.10;;;;;;5027553;28;20072;-65
2021/11/22 12:07:43;;;;;;;4.03;3.63;;;25.80;33.50;;;;;;5030929;28;20051;-68
2021/11/22 12:10:21;;;;;;;5.25;4.43;;;25.80;33.60;;;;;;5018229;28;20049;-66
2021/11/22 12:13:05;;;;;;;6.75;4.43;;;25.90;33.70;;;;;;5022073;28;20955;-66
2021/11/22 12:15:45;;;;;;;4.32;3.92;;;25.90;33.80;;;;;;5023209;28;20095;-66
2021/11/22 12:18:33;;;;;;;4.53;4.13;;;25.80;33.70;;;;;;5022119;28;21433;-65
2021/11/22 12:21:22;;;;;;;5.05;4.55;;;25.80;33.30;;;;;;5025511;28;20885;-66
2021/11/22 12:23:54;;;;;;;4.50;4.10;;;25.80;33.30;;;;;;5021782;28;20049;-66
2021/11/22 12:26:35;;;;;;;5.50;3.92;;;25.80;33.50;;;;;;5026652;28;20499;-69
2021/11/22 12:29:05;;;;;;;5.22;4.70;;;25.80;33.50;;;;;;5030521;28;20387;-70
2021/11/22 12:31:46;;;;;;;5.93;4.38;;;25.80;33.40;;;;;;5020112;28;20040;-68
2021/11/22 12:34:34;;;;;;;5.32;4.40;;;25.80;33.40;;;;;;5020975;28;20139;-69
2021/11/22 12:37:25;;;;;;;5.10;4.47;;;25.80;33.30;;;;;;5026234;28;20098;-70
2021/11/22 12:39:53;;;;;;;5.93;4.55;;;25.80;33.40;;;;;;5025311;28;20052;-68
2021/11/22 12:42:23;;;;;;;6.07;4.68;;;25.70;33.30;;;;;;5015577;28;20776;-69
2021/11/22 12:45:07;;;;;;;5.43;4.75;;;25.70;33.20;;;;;;5022435;28;20627;-69
2021/11/22 12:47:35;;;;;;;4.63;4.20;;;25.70;33.00;;;;;;5028600;28;20053;-65
2021/11/22 12:50:17;;;;;;;5.95;4.68;;;25.70;33.80;;;;;;5032963;28;20045;-61
2021/11/22 12:53:14;;;;;;;7.40;4.60;;;25.70;33.20;;;;;;5017081;28;20139;-65